sensor_id;sensor_type;location;lat;lon;timestamp;P1;durP1;ratioP1;P2;durP2;ratioP2
52964;SDS011;42923;53.220;6.528;2022-11-20T00:00:24;17.67;;;8.35;;
52964;SDS011;42923;53.220;6.528;2022-11-20T00:02:50;17.20;;;8.48;;
52964;SDS011;42923;53.220;6.528;2022-11-20T00:05:16;14.50;;;8.77;;
52964;SDS011;42923;53.220;6.528;2022-11-20T00:07:42;14.55;;;8.90;;
52964;SDS011;42923;53.220;6.528;2022-11-20T00:10:07;13.30;;;8.25;;
52964;SDS011;42923;53.220;6.528;2022-11-20T00:12:33;15.55;;;8.05;;
52964;SDS011;42923;53.220;6.528;2022-11-20T00:14:59;14.07;;;8.55;;
52964;SDS011;42923;53.220;6.528;2022-11-20T00:17:25;14.45;;;8.68;;
52964;SDS011;42923;53.220;6.528;2022-11-20T00:19:51;16.10;;;8.52;;
52964;SDS011;42923;53.220;6.528;2022-11-20T00:22:16;13.38;;;7.78;;
52964;SDS011;42923;53.220;6.528;2022-11-20T00:24:42;11.77;;;7.88;;
52964;SDS011;42923;53.220;6.528;2022-11-20T00:27:08;10.80;;;7.75;;
52964;SDS011;42923;53.220;6.528;2022-11-20T00:29:33;13.07;;;7.57;;
52964;SDS011;42923;53.220;6.528;2022-11-20T00:31:59;13.82;;;8.13;;
52964;SDS011;42923;53.220;6.528;2022-11-20T00:34:25;16.40;;;8.68;;
52964;SDS011;42923;53.220;6.528;2022-11-20T00:36:50;17.13;;;8.40;;
52964;SDS011;42923;53.220;6.528;2022-11-20T00:39:16;17.05;;;8.48;;
52964;SDS011;42923;53.220;6.528;2022-11-20T00:41:42;16.13;;;7.97;;
52964;SDS011;42923;53.220;6.528;2022-11-20T00:44:08;14.55;;;7.57;;
52964;SDS011;42923;53.220;6.528;2022-11-20T00:46:33;11.43;;;7.22;;
52964;SDS011;42923;53.220;6.528;2022-11-20T00:48:59;13.25;;;8.32;;
52964;SDS011;42923;53.220;6.528;2022-11-20T00:51:25;12.48;;;7.50;;
52964;SDS011;42923;53.220;6.528;2022-11-20T00:53:54;13.38;;;7.55;;
52964;SDS011;42923;53.220;6.528;2022-11-20T00:56:20;12.65;;;7.57;;
52964;SDS011;42923;53.220;6.528;2022-11-20T00:58:46;10.75;;;7.13;;
52964;SDS011;42923;53.220;6.528;2022-11-20T01:01:14;11.77;;;7.50;;
52964;SDS011;42923;53.220;6.528;2022-11-20T01:03:42;11.65;;;7.15;;
52964;SDS011;42923;53.220;6.528;2022-11-20T01:06:14;13.25;;;7.80;;
52964;SDS011;42923;53.220;6.528;2022-11-20T01:08:41;12.98;;;7.50;;
52964;SDS011;42923;53.220;6.528;2022-11-20T01:11:12;12.82;;;6.85;;
52964;SDS011;42923;53.220;6.528;2022-11-20T01:13:39;14.05;;;7.45;;
52964;SDS011;42923;53.220;6.528;2022-11-20T01:16:07;12.00;;;7.03;;
52964;SDS011;42923;53.220;6.528;2022-11-20T01:18:45;10.95;;;7.13;;
52964;SDS011;42923;53.220;6.528;2022-11-20T01:21:17;13.68;;;7.00;;
52964;SDS011;42923;53.220;6.528;2022-11-20T01:23:48;13.07;;;7.50;;
52964;SDS011;42923;53.220;6.528;2022-11-20T01:26:16;11.45;;;6.90;;
52964;SDS011;42923;53.220;6.528;2022-11-20T01:28:44;13.18;;;8.57;;
52964;SDS011;42923;53.220;6.528;2022-11-20T01:31:13;15.27;;;8.02;;
52964;SDS011;42923;53.220;6.528;2022-11-20T01:33:41;11.80;;;7.50;;
52964;SDS011;42923;53.220;6.528;2022-11-20T01:36:07;12.25;;;7.47;;
52964;SDS011;42923;53.220;6.528;2022-11-20T01:38:34;11.82;;;7.82;;
52964;SDS011;42923;53.220;6.528;2022-11-20T01:40:59;14.63;;;7.82;;
52964;SDS011;42923;53.220;6.528;2022-11-20T01:46:04;13.48;;;8.05;;
52964;SDS011;42923;53.220;6.528;2022-11-20T01:49:02;14.35;;;8.40;;
52964;SDS011;42923;53.220;6.528;2022-11-20T01:51:40;16.58;;;8.82;;
52964;SDS011;42923;53.220;6.528;2022-11-20T01:54:12;12.15;;;8.18;;
52964;SDS011;42923;53.220;6.528;2022-11-20T01:56:42;14.50;;;8.55;;
52964;SDS011;42923;53.220;6.528;2022-11-20T01:59:10;13.20;;;8.65;;
52964;SDS011;42923;53.220;6.528;2022-11-20T02:01:39;15.55;;;8.35;;
52964;SDS011;42923;53.220;6.528;2022-11-20T02:04:05;16.42;;;8.05;;
52964;SDS011;42923;53.220;6.528;2022-11-20T02:06:44;12.38;;;7.38;;
52964;SDS011;42923;53.220;6.528;2022-11-20T02:09:15;12.43;;;7.35;;
52964;SDS011;42923;53.220;6.528;2022-11-20T02:11:41;14.35;;;8.15;;
52964;SDS011;42923;53.220;6.528;2022-11-20T02:14:07;15.52;;;8.35;;
52964;SDS011;42923;53.220;6.528;2022-11-20T02:16:34;13.88;;;8.02;;
52964;SDS011;42923;53.220;6.528;2022-11-20T02:19:06;14.80;;;8.60;;
52964;SDS011;42923;53.220;6.528;2022-11-20T02:27:17;13.07;;;8.05;;
52964;SDS011;42923;53.220;6.528;2022-11-20T02:29:23;15.43;;;8.75;;
52964;SDS011;42923;53.220;6.528;2022-11-20T02:31:51;15.75;;;7.93;;
52964;SDS011;42923;53.220;6.528;2022-11-20T02:34:19;17.52;;;8.57;;
52964;SDS011;42923;53.220;6.528;2022-11-20T02:36:45;13.07;;;7.75;;
52964;SDS011;42923;53.220;6.528;2022-11-20T02:39:12;14.38;;;7.78;;
52964;SDS011;42923;53.220;6.528;2022-11-20T02:41:41;14.20;;;7.78;;
52964;SDS011;42923;53.220;6.528;2022-11-20T02:44:08;14.82;;;8.32;;
52964;SDS011;42923;53.220;6.528;2022-11-20T02:46:33;13.95;;;8.60;;
52964;SDS011;42923;53.220;6.528;2022-11-20T02:49:00;14.10;;;7.80;;
52964;SDS011;42923;53.220;6.528;2022-11-20T02:51:30;16.67;;;7.78;;
52964;SDS011;42923;53.220;6.528;2022-11-20T02:53:56;13.50;;;8.35;;
52964;SDS011;42923;53.220;6.528;2022-11-20T02:56:22;19.23;;;9.90;;
52964;SDS011;42923;53.220;6.528;2022-11-20T02:58:48;15.77;;;9.57;;
52964;SDS011;42923;53.220;6.528;2022-11-20T03:01:14;19.02;;;7.45;;
52964;SDS011;42923;53.220;6.528;2022-11-20T03:03:39;17.38;;;8.65;;
52964;SDS011;42923;53.220;6.528;2022-11-20T03:06:05;15.32;;;8.82;;
52964;SDS011;42923;53.220;6.528;2022-11-20T03:08:31;14.07;;;8.77;;
52964;SDS011;42923;53.220;6.528;2022-11-20T03:10:57;12.75;;;7.57;;
52964;SDS011;42923;53.220;6.528;2022-11-20T03:13:28;14.15;;;7.82;;
52964;SDS011;42923;53.220;6.528;2022-11-20T03:15:53;15.95;;;8.48;;
52964;SDS011;42923;53.220;6.528;2022-11-20T03:18:19;13.82;;;8.05;;
52964;SDS011;42923;53.220;6.528;2022-11-20T03:20:45;13.70;;;7.32;;
52964;SDS011;42923;53.220;6.528;2022-11-20T03:23:10;15.32;;;8.40;;
52964;SDS011;42923;53.220;6.528;2022-11-20T03:25:36;15.55;;;7.78;;
52964;SDS011;42923;53.220;6.528;2022-11-20T03:28:01;14.55;;;7.93;;
52964;SDS011;42923;53.220;6.528;2022-11-20T03:30:27;10.60;;;6.40;;
52964;SDS011;42923;53.220;6.528;2022-11-20T03:32:53;14.07;;;7.22;;
52964;SDS011;42923;53.220;6.528;2022-11-20T03:35:19;12.60;;;6.45;;
52964;SDS011;42923;53.220;6.528;2022-11-20T03:37:45;11.40;;;6.85;;
52964;SDS011;42923;53.220;6.528;2022-11-20T03:40:11;12.15;;;6.85;;
52964;SDS011;42923;53.220;6.528;2022-11-20T03:42:37;10.65;;;7.00;;
52964;SDS011;42923;53.220;6.528;2022-11-20T03:45:12;13.90;;;7.97;;
52964;SDS011;42923;53.220;6.528;2022-11-20T03:47:39;12.98;;;6.43;;
52964;SDS011;42923;53.220;6.528;2022-11-20T03:50:05;10.73;;;6.43;;
52964;SDS011;42923;53.220;6.528;2022-11-20T03:52:31;11.40;;;6.60;;
52964;SDS011;42923;53.220;6.528;2022-11-20T03:54:57;10.43;;;6.45;;
52964;SDS011;42923;53.220;6.528;2022-11-20T03:57:22;11.00;;;6.38;;
52964;SDS011;42923;53.220;6.528;2022-11-20T03:59:48;11.52;;;6.88;;
52964;SDS011;42923;53.220;6.528;2022-11-20T04:02:14;22.08;;;6.50;;
52964;SDS011;42923;53.220;6.528;2022-11-20T04:04:40;12.25;;;7.05;;
52964;SDS011;42923;53.220;6.528;2022-11-20T04:07:05;11.38;;;6.40;;
52964;SDS011;42923;53.220;6.528;2022-11-20T04:09:31;8.98;;;6.53;;
52964;SDS011;42923;53.220;6.528;2022-11-20T04:11:57;15.20;;;8.05;;
52964;SDS011;42923;53.220;6.528;2022-11-20T04:14:22;12.15;;;7.10;;
52964;SDS011;42923;53.220;6.528;2022-11-20T04:16:48;11.57;;;7.70;;
52964;SDS011;42923;53.220;6.528;2022-11-20T04:19:15;12.15;;;6.90;;
52964;SDS011;42923;53.220;6.528;2022-11-20T04:21:41;12.73;;;7.05;;
52964;SDS011;42923;53.220;6.528;2022-11-20T04:24:08;10.60;;;7.05;;
52964;SDS011;42923;53.220;6.528;2022-11-20T04:26:35;10.02;;;7.03;;
52964;SDS011;42923;53.220;6.528;2022-11-20T04:29:02;12.60;;;7.55;;
52964;SDS011;42923;53.220;6.528;2022-11-20T04:31:29;9.60;;;6.88;;
52964;SDS011;42923;53.220;6.528;2022-11-20T04:34:00;13.98;;;6.97;;
52964;SDS011;42923;53.220;6.528;2022-11-20T04:36:28;10.75;;;7.30;;
52964;SDS011;42923;53.220;6.528;2022-11-20T04:38:58;10.77;;;6.70;;
52964;SDS011;42923;53.220;6.528;2022-11-20T04:41:28;13.02;;;7.32;;
52964;SDS011;42923;53.220;6.528;2022-11-20T04:43:56;11.75;;;7.50;;
52964;SDS011;42923;53.220;6.528;2022-11-20T04:46:27;9.75;;;6.55;;
52964;SDS011;42923;53.220;6.528;2022-11-20T04:48:54;12.00;;;7.40;;
52964;SDS011;42923;53.220;6.528;2022-11-20T04:51:20;16.73;;;7.05;;
52964;SDS011;42923;53.220;6.528;2022-11-20T04:53:46;11.70;;;6.78;;
52964;SDS011;42923;53.220;6.528;2022-11-20T04:56:12;14.15;;;8.27;;
52964;SDS011;42923;53.220;6.528;2022-11-20T04:58:38;9.95;;;6.60;;
52964;SDS011;42923;53.220;6.528;2022-11-20T05:01:09;13.13;;;7.95;;
52964;SDS011;42923;53.220;6.528;2022-11-20T05:03:40;12.10;;;6.72;;
52964;SDS011;42923;53.220;6.528;2022-11-20T05:06:07;10.18;;;6.05;;
52964;SDS011;42923;53.220;6.528;2022-11-20T05:08:33;14.25;;;7.60;;
52964;SDS011;42923;53.220;6.528;2022-11-20T05:11:03;10.25;;;6.53;;
52964;SDS011;42923;53.220;6.528;2022-11-20T05:13:31;9.80;;;6.07;;
52964;SDS011;42923;53.220;6.528;2022-11-20T05:16:07;12.68;;;7.05;;
52964;SDS011;42923;53.220;6.528;2022-11-20T05:18:34;8.70;;;5.55;;
52964;SDS011;42923;53.220;6.528;2022-11-20T05:21:00;12.00;;;6.82;;
52964;SDS011;42923;53.220;6.528;2022-11-20T05:23:26;11.05;;;6.22;;
52964;SDS011;42923;53.220;6.528;2022-11-20T05:25:54;10.68;;;6.53;;
52964;SDS011;42923;53.220;6.528;2022-11-20T05:28:21;12.02;;;6.95;;
52964;SDS011;42923;53.220;6.528;2022-11-20T05:30:47;12.70;;;7.63;;
52964;SDS011;42923;53.220;6.528;2022-11-20T05:33:13;10.77;;;6.25;;
52964;SDS011;42923;53.220;6.528;2022-11-20T05:35:39;12.40;;;6.63;;
52964;SDS011;42923;53.220;6.528;2022-11-20T05:38:05;9.60;;;5.53;;
52964;SDS011;42923;53.220;6.528;2022-11-20T05:40:30;9.77;;;6.22;;
52964;SDS011;42923;53.220;6.528;2022-11-20T05:42:56;9.18;;;5.90;;
52964;SDS011;42923;53.220;6.528;2022-11-20T05:45:22;9.40;;;6.13;;
52964;SDS011;42923;53.220;6.528;2022-11-20T05:47:47;11.35;;;6.78;;
52964;SDS011;42923;53.220;6.528;2022-11-20T05:50:14;9.52;;;6.30;;
52964;SDS011;42923;53.220;6.528;2022-11-20T05:52:40;8.63;;;5.35;;
52964;SDS011;42923;53.220;6.528;2022-11-20T05:55:06;9.70;;;6.07;;
52964;SDS011;42923;53.220;6.528;2022-11-20T05:57:32;10.32;;;6.30;;
52964;SDS011;42923;53.220;6.528;2022-11-20T05:59:58;7.65;;;5.10;;
52964;SDS011;42923;53.220;6.528;2022-11-20T06:02:24;9.48;;;5.85;;
52964;SDS011;42923;53.220;6.528;2022-11-20T06:04:50;11.00;;;6.88;;
52964;SDS011;42923;53.220;6.528;2022-11-20T06:07:15;9.82;;;5.75;;
52964;SDS011;42923;53.220;6.528;2022-11-20T06:09:41;8.73;;;5.78;;
52964;SDS011;42923;53.220;6.528;2022-11-20T06:12:07;9.27;;;5.75;;
52964;SDS011;42923;53.220;6.528;2022-11-20T06:14:33;8.30;;;5.80;;
52964;SDS011;42923;53.220;6.528;2022-11-20T06:16:58;8.95;;;6.18;;
52964;SDS011;42923;53.220;6.528;2022-11-20T06:19:24;10.35;;;6.40;;
52964;SDS011;42923;53.220;6.528;2022-11-20T06:21:50;6.88;;;4.20;;
52964;SDS011;42923;53.220;6.528;2022-11-20T06:24:16;9.38;;;5.82;;
52964;SDS011;42923;53.220;6.528;2022-11-20T06:26:42;10.15;;;5.93;;
52964;SDS011;42923;53.220;6.528;2022-11-20T06:29:07;9.05;;;5.80;;
52964;SDS011;42923;53.220;6.528;2022-11-20T06:31:33;10.07;;;6.22;;
52964;SDS011;42923;53.220;6.528;2022-11-20T06:34:02;8.55;;;5.63;;
52964;SDS011;42923;53.220;6.528;2022-11-20T06:36:29;8.85;;;5.57;;
52964;SDS011;42923;53.220;6.528;2022-11-20T06:38:55;9.90;;;5.18;;
52964;SDS011;42923;53.220;6.528;2022-11-20T06:41:21;9.40;;;6.00;;
52964;SDS011;42923;53.220;6.528;2022-11-20T06:43:47;10.38;;;5.72;;
52964;SDS011;42923;53.220;6.528;2022-11-20T06:46:14;9.75;;;5.97;;
52964;SDS011;42923;53.220;6.528;2022-11-20T06:48:42;8.93;;;5.60;;
52964;SDS011;42923;53.220;6.528;2022-11-20T06:51:08;8.30;;;5.43;;
52964;SDS011;42923;53.220;6.528;2022-11-20T06:53:34;7.95;;;5.70;;
52964;SDS011;42923;53.220;6.528;2022-11-20T06:56:01;9.18;;;5.65;;
52964;SDS011;42923;53.220;6.528;2022-11-20T06:58:28;7.95;;;4.63;;
52964;SDS011;42923;53.220;6.528;2022-11-20T07:00:58;7.43;;;5.53;;
52964;SDS011;42923;53.220;6.528;2022-11-20T07:03:28;8.52;;;5.63;;
52964;SDS011;42923;53.220;6.528;2022-11-20T07:05:54;8.75;;;6.00;;
52964;SDS011;42923;53.220;6.528;2022-11-20T07:08:21;9.75;;;6.60;;
52964;SDS011;42923;53.220;6.528;2022-11-20T07:10:47;8.85;;;5.47;;
52964;SDS011;42923;53.220;6.528;2022-11-20T07:13:12;9.23;;;5.75;;
52964;SDS011;42923;53.220;6.528;2022-11-20T07:15:39;8.88;;;5.40;;
52964;SDS011;42923;53.220;6.528;2022-11-20T07:18:04;10.40;;;6.20;;
52964;SDS011;42923;53.220;6.528;2022-11-20T07:20:30;10.48;;;5.72;;
52964;SDS011;42923;53.220;6.528;2022-11-20T07:22:56;9.30;;;5.13;;
52964;SDS011;42923;53.220;6.528;2022-11-20T07:25:23;8.73;;;5.43;;
52964;SDS011;42923;53.220;6.528;2022-11-20T07:27:49;8.73;;;5.72;;
52964;SDS011;42923;53.220;6.528;2022-11-20T07:30:15;7.50;;;4.97;;
52964;SDS011;42923;53.220;6.528;2022-11-20T07:32:41;7.90;;;5.72;;
52964;SDS011;42923;53.220;6.528;2022-11-20T07:35:07;9.52;;;5.65;;
52964;SDS011;42923;53.220;6.528;2022-11-20T07:37:34;11.93;;;5.32;;
52964;SDS011;42923;53.220;6.528;2022-11-20T07:40:00;12.15;;;5.40;;
52964;SDS011;42923;53.220;6.528;2022-11-20T07:42:25;7.53;;;5.43;;
52964;SDS011;42923;53.220;6.528;2022-11-20T07:44:51;9.68;;;5.88;;
52964;SDS011;42923;53.220;6.528;2022-11-20T07:47:17;10.93;;;6.88;;
52964;SDS011;42923;53.220;6.528;2022-11-20T07:49:42;7.97;;;5.25;;
52964;SDS011;42923;53.220;6.528;2022-11-20T07:52:08;8.35;;;5.70;;
52964;SDS011;42923;53.220;6.528;2022-11-20T07:54:34;9.43;;;5.78;;
52964;SDS011;42923;53.220;6.528;2022-11-20T07:56:59;9.55;;;5.63;;
52964;SDS011;42923;53.220;6.528;2022-11-20T07:59:25;9.60;;;5.60;;
52964;SDS011;42923;53.220;6.528;2022-11-20T08:01:50;8.60;;;5.50;;
52964;SDS011;42923;53.220;6.528;2022-11-20T08:04:16;8.77;;;5.35;;
52964;SDS011;42923;53.220;6.528;2022-11-20T08:06:42;9.40;;;5.85;;
52964;SDS011;42923;53.220;6.528;2022-11-20T08:09:08;7.97;;;5.28;;
52964;SDS011;42923;53.220;6.528;2022-11-20T08:11:34;8.95;;;5.60;;
52964;SDS011;42923;53.220;6.528;2022-11-20T08:14:18;9.13;;;5.47;;
52964;SDS011;42923;53.220;6.528;2022-11-20T08:16:45;10.73;;;5.78;;
52964;SDS011;42923;53.220;6.528;2022-11-20T08:19:12;7.10;;;5.28;;
52964;SDS011;42923;53.220;6.528;2022-11-20T08:21:39;10.60;;;6.10;;
52964;SDS011;42923;53.220;6.528;2022-11-20T08:24:05;10.73;;;6.15;;
52964;SDS011;42923;53.220;6.528;2022-11-20T08:26:32;10.60;;;6.00;;
52964;SDS011;42923;53.220;6.528;2022-11-20T08:28:58;9.98;;;5.75;;
52964;SDS011;42923;53.220;6.528;2022-11-20T08:31:24;10.40;;;6.47;;
52964;SDS011;42923;53.220;6.528;2022-11-20T08:33:51;10.35;;;5.90;;
52964;SDS011;42923;53.220;6.528;2022-11-20T08:36:17;9.10;;;5.22;;
52964;SDS011;42923;53.220;6.528;2022-11-20T08:38:47;10.35;;;5.63;;
52964;SDS011;42923;53.220;6.528;2022-11-20T08:41:13;9.50;;;6.03;;
52964;SDS011;42923;53.220;6.528;2022-11-20T08:43:49;11.63;;;7.30;;
52964;SDS011;42923;53.220;6.528;2022-11-20T08:46:15;11.88;;;6.22;;
52964;SDS011;42923;53.220;6.528;2022-11-20T08:48:42;8.63;;;5.85;;
52964;SDS011;42923;53.220;6.528;2022-11-20T08:51:08;10.25;;;6.50;;
52964;SDS011;42923;53.220;6.528;2022-11-20T08:53:34;11.23;;;6.07;;
52964;SDS011;42923;53.220;6.528;2022-11-20T08:56:00;8.85;;;5.70;;
52964;SDS011;42923;53.220;6.528;2022-11-20T08:58:26;8.95;;;5.72;;
52964;SDS011;42923;53.220;6.528;2022-11-20T09:00:52;11.02;;;6.45;;
52964;SDS011;42923;53.220;6.528;2022-11-20T09:03:18;8.20;;;5.60;;
52964;SDS011;42923;53.220;6.528;2022-11-20T09:05:44;9.20;;;5.13;;
52964;SDS011;42923;53.220;6.528;2022-11-20T09:08:10;9.13;;;6.00;;
52964;SDS011;42923;53.220;6.528;2022-11-20T09:10:36;12.05;;;6.93;;
52964;SDS011;42923;53.220;6.528;2022-11-20T09:13:04;8.48;;;5.88;;
52964;SDS011;42923;53.220;6.528;2022-11-20T09:15:30;11.63;;;6.32;;
52964;SDS011;42923;53.220;6.528;2022-11-20T09:18:00;13.38;;;7.00;;
52964;SDS011;42923;53.220;6.528;2022-11-20T09:20:28;12.57;;;6.50;;
52964;SDS011;42923;53.220;6.528;2022-11-20T09:22:55;11.13;;;6.43;;
52964;SDS011;42923;53.220;6.528;2022-11-20T09:25:21;10.27;;;6.55;;
52964;SDS011;42923;53.220;6.528;2022-11-20T09:27:47;10.13;;;6.32;;
52964;SDS011;42923;53.220;6.528;2022-11-20T09:30:13;10.43;;;5.97;;
52964;SDS011;42923;53.220;6.528;2022-11-20T09:32:39;8.90;;;5.55;;
52964;SDS011;42923;53.220;6.528;2022-11-20T09:35:06;11.60;;;6.22;;
52964;SDS011;42923;53.220;6.528;2022-11-20T09:37:32;8.90;;;5.63;;
52964;SDS011;42923;53.220;6.528;2022-11-20T09:39:57;9.32;;;6.00;;
52964;SDS011;42923;53.220;6.528;2022-11-20T09:42:27;9.50;;;6.20;;
52964;SDS011;42923;53.220;6.528;2022-11-20T09:47:47;10.07;;;6.43;;
52964;SDS011;42923;53.220;6.528;2022-11-20T09:50:23;15.10;;;6.50;;
52964;SDS011;42923;53.220;6.528;2022-11-20T09:55:46;8.98;;;5.38;;
52964;SDS011;42923;53.220;6.528;2022-11-20T10:03:37;9.47;;;5.70;;
52964;SDS011;42923;53.220;6.528;2022-11-20T10:06:15;6.90;;;5.25;;
52964;SDS011;42923;53.220;6.528;2022-11-20T10:09:47;10.65;;;5.75;;
52964;SDS011;42923;53.220;6.528;2022-11-20T10:17:46;13.00;;;6.07;;
52964;SDS011;42923;53.220;6.528;2022-11-20T10:26:22;8.05;;;4.82;;
52964;SDS011;42923;53.220;6.528;2022-11-20T10:31:40;9.85;;;5.45;;
52964;SDS011;42923;53.220;6.528;2022-11-20T10:36:44;8.32;;;5.03;;
52964;SDS011;42923;53.220;6.528;2022-11-20T10:41:43;8.15;;;5.55;;
52964;SDS011;42923;53.220;6.528;2022-11-20T10:44:17;8.00;;;5.10;;
52964;SDS011;42923;53.220;6.528;2022-11-20T10:47:04;7.90;;;4.97;;
52964;SDS011;42923;53.220;6.528;2022-11-20T10:49:30;8.52;;;5.40;;
52964;SDS011;42923;53.220;6.528;2022-11-20T10:52:03;6.65;;;4.47;;
52964;SDS011;42923;53.220;6.528;2022-11-20T10:54:43;6.20;;;4.32;;
52964;SDS011;42923;53.220;6.528;2022-11-20T10:57:19;7.07;;;5.10;;
52964;SDS011;42923;53.220;6.528;2022-11-20T10:59:51;9.43;;;5.40;;
52964;SDS011;42923;53.220;6.528;2022-11-20T11:02:33;6.82;;;3.58;;
52964;SDS011;42923;53.220;6.528;2022-11-20T11:05:10;8.52;;;4.85;;
52964;SDS011;42923;53.220;6.528;2022-11-20T11:07:44;6.75;;;4.82;;
52964;SDS011;42923;53.220;6.528;2022-11-20T11:10:18;5.53;;;3.72;;
52964;SDS011;42923;53.220;6.528;2022-11-20T11:12:48;7.53;;;5.07;;
52964;SDS011;42923;53.220;6.528;2022-11-20T11:15:15;6.85;;;4.93;;
52964;SDS011;42923;53.220;6.528;2022-11-20T11:17:54;8.48;;;5.18;;
52964;SDS011;42923;53.220;6.528;2022-11-20T11:20:21;7.93;;;5.43;;
52964;SDS011;42923;53.220;6.528;2022-11-20T11:22:50;7.28;;;5.03;;
52964;SDS011;42923;53.220;6.528;2022-11-20T11:27:48;8.20;;;5.72;;
52964;SDS011;42923;53.220;6.528;2022-11-20T11:30:15;10.10;;;5.35;;
52964;SDS011;42923;53.220;6.528;2022-11-20T11:32:42;8.57;;;5.45;;
52964;SDS011;42923;53.220;6.528;2022-11-20T11:35:19;9.02;;;5.30;;
52964;SDS011;42923;53.220;6.528;2022-11-20T11:37:53;7.95;;;5.35;;
52964;SDS011;42923;53.220;6.528;2022-11-20T11:40:27;7.20;;;5.15;;
52964;SDS011;42923;53.220;6.528;2022-11-20T11:42:57;7.88;;;4.72;;
52964;SDS011;42923;53.220;6.528;2022-11-20T11:45:29;6.38;;;4.22;;
52964;SDS011;42923;53.220;6.528;2022-11-20T11:47:58;9.55;;;5.10;;
52964;SDS011;42923;53.220;6.528;2022-11-20T11:50:28;6.97;;;4.55;;
52964;SDS011;42923;53.220;6.528;2022-11-20T11:52:56;8.57;;;5.35;;
52964;SDS011;42923;53.220;6.528;2022-11-20T12:01:03;7.85;;;4.85;;
52964;SDS011;42923;53.220;6.528;2022-11-20T12:03:37;4.55;;;3.38;;
52964;SDS011;42923;53.220;6.528;2022-11-20T12:06:13;7.38;;;4.63;;
52964;SDS011;42923;53.220;6.528;2022-11-20T12:08:57;7.82;;;4.30;;
52964;SDS011;42923;53.220;6.528;2022-11-20T12:11:45;6.50;;;4.28;;
52964;SDS011;42923;53.220;6.528;2022-11-20T12:14:46;6.53;;;4.53;;
52964;SDS011;42923;53.220;6.528;2022-11-20T12:17:15;6.78;;;4.05;;
52964;SDS011;42923;53.220;6.528;2022-11-20T12:19:41;5.20;;;3.75;;
52964;SDS011;42923;53.220;6.528;2022-11-20T12:25:10;5.32;;;3.55;;
52964;SDS011;42923;53.220;6.528;2022-11-20T12:28:18;5.53;;;3.63;;
52964;SDS011;42923;53.220;6.528;2022-11-20T12:30:56;4.63;;;3.03;;
52964;SDS011;42923;53.220;6.528;2022-11-20T12:39:23;3.78;;;2.40;;
52964;SDS011;42923;53.220;6.528;2022-11-20T12:50:48;4.78;;;3.10;;
52964;SDS011;42923;53.220;6.528;2022-11-20T13:07:17;3.40;;;2.58;;
52964;SDS011;42923;53.220;6.528;2022-11-20T13:09:45;4.82;;;3.10;;
52964;SDS011;42923;53.220;6.528;2022-11-20T13:12:24;4.82;;;2.85;;
52964;SDS011;42923;53.220;6.528;2022-11-20T13:17:58;4.13;;;2.70;;
52964;SDS011;42923;53.220;6.528;2022-11-20T13:20:25;3.47;;;2.72;;
52964;SDS011;42923;53.220;6.528;2022-11-20T13:22:53;4.45;;;2.97;;
52964;SDS011;42923;53.220;6.528;2022-11-20T13:25:25;4.47;;;3.05;;
52964;SDS011;42923;53.220;6.528;2022-11-20T13:27:56;4.95;;;3.05;;
52964;SDS011;42923;53.220;6.528;2022-11-20T13:30:26;5.35;;;3.30;;
52964;SDS011;42923;53.220;6.528;2022-11-20T13:32:53;6.10;;;3.63;;
52964;SDS011;42923;53.220;6.528;2022-11-20T13:35:27;5.60;;;3.45;;
52964;SDS011;42923;53.220;6.528;2022-11-20T13:38:02;6.82;;;4.25;;
52964;SDS011;42923;53.220;6.528;2022-11-20T13:40:36;5.85;;;3.75;;
52964;SDS011;42923;53.220;6.528;2022-11-20T13:46:04;7.15;;;3.70;;
52964;SDS011;42923;53.220;6.528;2022-11-20T13:48:38;8.23;;;4.65;;
52964;SDS011;42923;53.220;6.528;2022-11-20T13:56:18;9.68;;;3.90;;
52964;SDS011;42923;53.220;6.528;2022-11-20T14:01:45;7.72;;;3.60;;
52964;SDS011;42923;53.220;6.528;2022-11-20T14:04:18;4.88;;;3.63;;
52964;SDS011;42923;53.220;6.528;2022-11-20T14:06:50;6.35;;;3.65;;
52964;SDS011;42923;53.220;6.528;2022-11-20T14:09:30;4.28;;;3.35;;
52964;SDS011;42923;53.220;6.528;2022-11-20T14:11:57;6.03;;;4.03;;
52964;SDS011;42923;53.220;6.528;2022-11-20T14:14:26;5.63;;;3.20;;
52964;SDS011;42923;53.220;6.528;2022-11-20T14:17:04;6.47;;;3.90;;
52964;SDS011;42923;53.220;6.528;2022-11-20T14:19:32;6.57;;;3.97;;
52964;SDS011;42923;53.220;6.528;2022-11-20T14:22:09;5.95;;;3.95;;
52964;SDS011;42923;53.220;6.528;2022-11-20T14:24:35;5.38;;;3.70;;
52964;SDS011;42923;53.220;6.528;2022-11-20T14:27:01;9.95;;;4.38;;
52964;SDS011;42923;53.220;6.528;2022-11-20T14:29:28;5.25;;;4.38;;
52964;SDS011;42923;53.220;6.528;2022-11-20T14:31:59;9.85;;;4.43;;
52964;SDS011;42923;53.220;6.528;2022-11-20T14:34:28;6.45;;;4.43;;
52964;SDS011;42923;53.220;6.528;2022-11-20T14:36:57;6.55;;;4.30;;
52964;SDS011;42923;53.220;6.528;2022-11-20T14:39:31;7.95;;;4.28;;
52964;SDS011;42923;53.220;6.528;2022-11-20T14:41:58;6.22;;;4.30;;
52964;SDS011;42923;53.220;6.528;2022-11-20T14:44:26;7.32;;;3.92;;
52964;SDS011;42923;53.220;6.528;2022-11-20T14:46:57;7.53;;;4.05;;
52964;SDS011;42923;53.220;6.528;2022-11-20T14:49:25;6.55;;;3.70;;
52964;SDS011;42923;53.220;6.528;2022-11-20T14:52:01;6.70;;;4.65;;
52964;SDS011;42923;53.220;6.528;2022-11-20T14:54:34;8.52;;;3.83;;
52964;SDS011;42923;53.220;6.528;2022-11-20T14:57:22;6.35;;;3.70;;
52964;SDS011;42923;53.220;6.528;2022-11-20T15:00:06;7.75;;;4.80;;
52964;SDS011;42923;53.220;6.528;2022-11-20T15:02:45;8.15;;;4.55;;
52964;SDS011;42923;53.220;6.528;2022-11-20T15:05:12;6.40;;;3.97;;
52964;SDS011;42923;53.220;6.528;2022-11-20T15:07:39;8.25;;;4.38;;
52964;SDS011;42923;53.220;6.528;2022-11-20T15:10:11;6.55;;;4.45;;
52964;SDS011;42923;53.220;6.528;2022-11-20T15:12:47;8.05;;;4.32;;
52964;SDS011;42923;53.220;6.528;2022-11-20T15:15:58;7.03;;;4.60;;
52964;SDS011;42923;53.220;6.528;2022-11-20T15:18:15;6.95;;;4.40;;
52964;SDS011;42923;53.220;6.528;2022-11-20T15:20:43;6.95;;;4.55;;
52964;SDS011;42923;53.220;6.528;2022-11-20T15:23:13;8.07;;;4.38;;
52964;SDS011;42923;53.220;6.528;2022-11-20T15:25:40;7.03;;;4.28;;
52964;SDS011;42923;53.220;6.528;2022-11-20T15:28:49;8.45;;;5.40;;
52964;SDS011;42923;53.220;6.528;2022-11-20T15:30:58;9.30;;;4.38;;
52964;SDS011;42923;53.220;6.528;2022-11-20T15:33:24;6.22;;;4.00;;
52964;SDS011;42923;53.220;6.528;2022-11-20T15:35:50;6.43;;;4.60;;
52964;SDS011;42923;53.220;6.528;2022-11-20T15:38:15;7.85;;;5.55;;
52964;SDS011;42923;53.220;6.528;2022-11-20T15:40:41;10.40;;;5.38;;
52964;SDS011;42923;53.220;6.528;2022-11-20T15:43:07;8.25;;;5.00;;
52964;SDS011;42923;53.220;6.528;2022-11-20T15:45:33;6.72;;;4.70;;
52964;SDS011;42923;53.220;6.528;2022-11-20T15:48:12;7.10;;;4.45;;
52964;SDS011;42923;53.220;6.528;2022-11-20T15:50:51;8.10;;;4.95;;
52964;SDS011;42923;53.220;6.528;2022-11-20T15:53:37;9.85;;;5.30;;
52964;SDS011;42923;53.220;6.528;2022-11-20T15:56:03;12.02;;;5.88;;
52964;SDS011;42923;53.220;6.528;2022-11-20T15:58:29;8.88;;;4.93;;
52964;SDS011;42923;53.220;6.528;2022-11-20T16:00:55;7.07;;;4.80;;
52964;SDS011;42923;53.220;6.528;2022-11-20T16:03:21;9.77;;;5.28;;
52964;SDS011;42923;53.220;6.528;2022-11-20T16:05:47;8.35;;;5.40;;
52964;SDS011;42923;53.220;6.528;2022-11-20T16:08:13;12.68;;;6.13;;
52964;SDS011;42923;53.220;6.528;2022-11-20T16:10:39;9.60;;;4.82;;
52964;SDS011;42923;53.220;6.528;2022-11-20T16:13:11;8.15;;;5.38;;
52964;SDS011;42923;53.220;6.528;2022-11-20T16:15:57;13.20;;;5.93;;
52964;SDS011;42923;53.220;6.528;2022-11-20T16:18:24;9.77;;;5.57;;
52964;SDS011;42923;53.220;6.528;2022-11-20T16:20:53;8.10;;;4.97;;
52964;SDS011;42923;53.220;6.528;2022-11-20T16:23:20;9.23;;;5.82;;